createdAt,value
2018-04-24T00:00:49.653Z,16.91
2018-04-24T00:01:49.966Z,17.05
2018-04-24T00:02:49.691Z,17.05
2018-04-24T00:03:50.048Z,17.04
2018-04-24T00:04:50.000Z,16.97
2018-04-24T00:05:50.058Z,16.96
2018-04-24T00:06:50.043Z,17.01
2018-04-24T00:07:50.086Z,16.9
2018-04-24T00:08:50.099Z,16.96
2018-04-24T00:09:49.944Z,16.91
2018-04-24T00:10:49.872Z,16.91
2018-04-24T00:11:50.161Z,16.91
2018-04-24T00:12:50.188Z,16.9
2018-04-24T00:13:50.198Z,16.87
2018-04-24T00:14:50.223Z,16.86
2018-04-24T00:15:49.951Z,16.78
2018-04-24T00:16:50.272Z,16.83
2018-04-24T00:17:50.285Z,16.86
2018-04-24T00:18:50.304Z,16.83
2018-04-24T00:19:50.055Z,16.87
2018-04-24T00:20:50.059Z,16.83
2018-04-24T00:21:50.353Z,16.83
2018-04-24T00:22:49.827Z,16.78
2018-04-24T00:23:50.417Z,16.78
2018-04-24T00:24:50.433Z,16.74
2018-04-24T00:25:50.464Z,16.72
2018-04-24T00:26:50.467Z,16.61
2018-04-24T00:27:50.520Z,16.75
2018-04-24T00:28:50.577Z,16.68
2018-04-24T00:29:50.523Z,16.61
2018-04-24T00:30:50.552Z,16.66
2018-04-24T00:31:50.570Z,16.58
2018-04-24T00:32:50.581Z,16.61
2018-04-24T00:33:50.346Z,16.64
2018-04-24T00:34:50.624Z,16.57
2018-04-24T00:35:50.641Z,16.58
2018-04-24T00:36:50.661Z,16.51
2018-04-24T00:37:50.425Z,16.57
2018-04-24T00:38:50.714Z,16.49
2018-04-24T00:39:50.460Z,16.53
2018-04-24T00:40:50.463Z,16.51
2018-04-24T00:41:50.781Z,16.53
2018-04-24T00:42:50.794Z,16.46
2018-04-24T00:43:50.801Z,16.43
2018-04-24T00:44:50.831Z,16.47
2018-04-24T00:45:51.043Z,16.43
2018-04-24T00:46:50.883Z,16.43
2018-04-24T00:47:50.910Z,16.41
2018-04-24T00:48:50.365Z,16.38
2018-04-24T00:49:50.936Z,16.42
2018-04-24T00:50:50.686Z,16.33
2018-04-24T00:51:50.972Z,16.35
2018-04-24T00:52:50.438Z,16.42
2018-04-24T00:53:50.994Z,16.35
2018-04-24T00:54:50.749Z,16.29
2018-04-24T00:55:50.762Z,16.31
2018-04-24T00:56:51.052Z,16.31
2018-04-24T00:57:51.086Z,16.24
2018-04-24T00:58:51.121Z,16.23
2018-04-24T00:59:51.129Z,16.29
2018-04-24T01:00:50.856Z,16.17
2018-04-24T01:01:50.600Z,16.17
2018-04-24T01:02:51.205Z,16.16
2018-04-24T01:03:51.212Z,16.24
2018-04-24T01:04:51.238Z,16.26
2018-04-24T01:05:51.251Z,16.15
2018-04-24T01:06:51.613Z,16.16
2018-04-24T01:07:51.022Z,16.17
2018-04-24T01:08:51.033Z,16.16
2018-04-24T01:09:51.067Z,16.15
2018-04-24T01:10:51.063Z,16.15
2018-04-24T01:11:51.094Z,16.1
2018-04-24T01:12:51.116Z,16.15
2018-04-24T01:13:50.852Z,16.09
2018-04-24T01:14:51.428Z,16.04
2018-04-24T01:15:51.177Z,16.05
2018-04-24T01:16:51.180Z,16.05
2018-04-24T01:17:51.269Z,16
2018-04-24T01:18:51.508Z,16.05
2018-04-24T01:19:51.532Z,15.94
2018-04-24T01:20:51.270Z,16
2018-04-24T01:21:51.293Z,16
2018-04-24T01:22:51.310Z,15.97
2018-04-24T01:23:51.615Z,16.05
2018-04-24T01:24:51.616Z,16
2018-04-24T01:25:51.633Z,16.01
2018-04-24T01:26:51.408Z,15.92
2018-04-24T01:27:51.469Z,16
2018-04-24T01:28:51.703Z,15.9
2018-04-24T01:29:51.454Z,15.91
2018-04-24T01:30:51.752Z,15.91
2018-04-24T01:31:51.780Z,15.88
2018-04-24T01:32:51.513Z,16
2018-04-24T01:33:51.807Z,15.88
2018-04-24T01:34:51.553Z,15.9
2018-04-24T01:35:51.571Z,15.88
2018-04-24T01:36:51.890Z,15.82
2018-04-24T01:37:51.611Z,15.76
2018-04-24T01:38:51.904Z,15.8
2018-04-24T01:39:51.655Z,15.79
2018-04-24T01:40:51.678Z,15.86
2018-04-24T01:41:51.980Z,15.79
2018-04-24T01:42:51.710Z,15.83
2018-04-24T01:43:51.732Z,15.82
2018-04-24T01:44:52.033Z,15.72
2018-04-24T01:45:52.053Z,15.72
2018-04-24T01:46:51.790Z,15.73
2018-04-24T01:47:52.139Z,15.72
2018-04-24T01:48:52.138Z,15.7
2018-04-24T01:49:52.130Z,15.62
2018-04-24T01:50:51.578Z,15.64
2018-04-24T01:51:52.158Z,15.72
2018-04-24T01:52:52.176Z,15.68
2018-04-24T01:53:51.919Z,15.7
2018-04-24T01:54:52.241Z,15.59
2018-04-24T01:55:52.247Z,15.65
2018-04-24T01:56:52.247Z,15.55
2018-04-24T01:57:52.355Z,15.58
2018-04-24T01:58:52.307Z,15.61
2018-04-24T01:59:52.332Z,15.72
2018-04-24T02:00:52.350Z,15.65
2018-04-24T02:01:52.368Z,15.64
2018-04-24T02:02:52.383Z,15.67
2018-04-24T02:03:52.398Z,15.51
2018-04-24T02:04:52.143Z,15.61
2018-04-24T02:05:52.457Z,15.57
2018-04-24T02:06:52.169Z,15.54
2018-04-24T02:07:52.469Z,15.52
2018-04-24T02:08:52.490Z,15.58
2018-04-24T02:09:52.226Z,15.51
2018-04-24T02:10:52.549Z,15.55
2018-04-24T02:11:52.556Z,15.47
2018-04-24T02:12:52.000Z,15.47
2018-04-24T02:13:52.327Z,15.52
2018-04-24T02:14:52.331Z,15.47
2018-04-24T02:15:52.646Z,15.49
2018-04-24T02:16:52.633Z,15.47
2018-04-24T02:17:52.485Z,15.47
2018-04-24T02:18:52.675Z,15.44
2018-04-24T02:19:52.718Z,15.46
2018-04-24T02:20:52.449Z,15.35
2018-04-24T02:21:52.452Z,15.44
2018-04-24T02:22:52.471Z,15.37
2018-04-24T02:23:52.785Z,15.42
2018-04-24T02:24:52.817Z,15.33
2018-04-24T02:25:52.532Z,15.4
2018-04-24T02:26:52.279Z,15.36
2018-04-24T02:27:52.648Z,15.37
2018-04-24T02:28:52.927Z,15.29
2018-04-24T02:29:52.631Z,15.39
2018-04-24T02:30:52.939Z,15.33
2018-04-24T02:31:52.649Z,15.28
2018-04-24T02:32:52.720Z,15.27
2018-04-24T02:33:52.706Z,15.33
2018-04-24T02:34:52.727Z,15.28
2018-04-24T02:35:52.753Z,15.28
2018-04-24T02:36:53.150Z,15.29
2018-04-24T02:37:52.794Z,15.24
2018-04-24T02:38:52.513Z,15.18
2018-04-24T02:39:52.820Z,15.28
2018-04-24T02:40:52.843Z,15.21
2018-04-24T02:41:53.155Z,15.24
2018-04-24T02:42:53.174Z,15.18
2018-04-24T02:43:52.903Z,15.25
2018-04-24T02:44:53.211Z,15.18
2018-04-24T02:45:53.229Z,15.19
2018-04-24T02:46:52.983Z,15.15
2018-04-24T02:47:52.701Z,15.21
2018-04-24T02:48:52.728Z,15.24
2018-04-24T02:49:52.738Z,15.19
2018-04-24T02:50:53.310Z,15.22
2018-04-24T02:51:53.317Z,15.22
2018-04-24T02:52:53.115Z,15.18
2018-04-24T02:53:53.370Z,15.17
2018-04-24T02:54:53.406Z,15.11
2018-04-24T02:55:53.107Z,15.18
2018-04-24T02:56:53.423Z,15.11
2018-04-24T02:57:53.495Z,15.11
2018-04-24T02:58:53.476Z,15.15
2018-04-24T02:59:53.562Z,15.07
2018-04-24T03:00:53.238Z,15.15
2018-04-24T03:01:53.507Z,15.14
2018-04-24T03:02:53.589Z,15.07
2018-04-24T03:03:53.576Z,15.11
2018-04-24T03:04:53.572Z,15.09
2018-04-24T03:05:53.588Z,15.11
2018-04-24T03:06:53.054Z,15.07
2018-04-24T03:07:53.350Z,15
2018-04-24T03:08:53.355Z,15.03
2018-04-24T03:09:53.667Z,15.04
2018-04-24T03:10:53.698Z,15.02
2018-04-24T03:11:53.979Z,15.06
2018-04-24T03:12:53.743Z,14.99
2018-04-24T03:13:53.827Z,15
2018-04-24T03:14:53.765Z,14.96
2018-04-24T03:15:53.793Z,15.02
2018-04-24T03:16:53.816Z,14.86
2018-04-24T03:17:53.886Z,15
2018-04-24T03:18:53.856Z,15
2018-04-24T03:19:53.578Z,15.03
2018-04-24T03:20:53.859Z,14.96
2018-04-24T03:21:53.617Z,15
2018-04-24T03:22:53.635Z,14.96
2018-04-24T03:23:53.666Z,14.99
2018-04-24T03:24:53.940Z,14.94
2018-04-24T03:25:53.963Z,14.91
2018-04-24T03:26:53.714Z,14.89
2018-04-24T03:27:54.067Z,14.94
2018-04-24T03:28:53.764Z,14.86
2018-04-24T03:29:54.036Z,14.89
2018-04-24T03:30:53.813Z,14.86
2018-04-24T03:31:54.088Z,14.84
2018-04-24T03:32:54.093Z,14.82
2018-04-24T03:33:54.117Z,14.85
2018-04-24T03:34:54.134Z,14.79
2018-04-24T03:35:54.168Z,14.81
2018-04-24T03:36:54.200Z,14.81
2018-04-24T03:37:53.922Z,14.84
2018-04-24T03:38:54.221Z,14.78
2018-04-24T03:39:54.234Z,14.85
2018-04-24T03:40:53.973Z,14.77
2018-04-24T03:41:54.279Z,14.85
2018-04-24T03:42:54.403Z,14.7
2018-04-24T03:43:54.038Z,14.78
2018-04-24T03:44:54.055Z,14.73
2018-04-24T03:45:54.063Z,14.72
2018-04-24T03:46:54.384Z,14.73
2018-04-24T03:47:54.120Z,14.77
2018-04-24T03:48:54.403Z,14.72
2018-04-24T03:49:53.870Z,14.78
2018-04-24T03:50:54.447Z,14.78
2018-04-24T03:51:54.483Z,14.7
2018-04-24T03:52:54.503Z,14.7
2018-04-24T03:53:54.492Z,14.77
2018-04-24T03:54:54.525Z,14.68
2018-04-24T03:55:54.540Z,14.62
2018-04-24T03:56:54.565Z,14.62
2018-04-24T03:57:54.735Z,14.7
2018-04-24T03:58:54.054Z,14.63
2018-04-24T03:59:54.608Z,14.65
2018-04-24T04:00:54.635Z,14.62
2018-04-24T04:01:54.699Z,14.51
2018-04-24T04:02:54.804Z,14.62
2018-04-24T04:03:54.711Z,14.54
2018-04-24T04:04:54.716Z,14.58
2018-04-24T04:05:54.724Z,14.63
2018-04-24T04:06:54.745Z,14.55
2018-04-24T04:07:54.840Z,14.62
2018-04-24T04:08:54.772Z,14.53
2018-04-24T04:09:55.122Z,14.47
2018-04-24T04:10:54.533Z,14.58
2018-04-24T04:11:54.573Z,14.54
2018-04-24T04:12:54.874Z,14.47
2018-04-24T04:13:54.892Z,14.53
2018-04-24T04:14:54.900Z,14.54
2018-04-24T04:15:55.120Z,14.54
2018-04-24T04:16:54.925Z,14.47
2018-04-24T04:17:54.941Z,14.51
2018-04-24T04:18:54.409Z,14.47
2018-04-24T04:19:54.990Z,14.54
2018-04-24T04:20:54.443Z,14.5
2018-04-24T04:21:55.034Z,14.5
2018-04-24T04:22:54.906Z,14.55
2018-04-24T04:23:55.063Z,14.48
2018-04-24T04:24:55.072Z,14.41
2018-04-24T04:25:54.822Z,14.37
2018-04-24T04:26:55.104Z,14.5
2018-04-24T04:27:55.158Z,14.47
2018-04-24T04:28:54.890Z,14.48
2018-04-24T04:29:55.189Z,14.41
2018-04-24T04:30:55.211Z,14.41
2018-04-24T04:31:54.927Z,14.4
2018-04-24T04:32:55.322Z,14.4
2018-04-24T04:33:54.971Z,14.48
2018-04-24T04:34:54.991Z,14.33
2018-04-24T04:35:55.285Z,14.37
2018-04-24T04:36:55.318Z,14.41
2018-04-24T04:37:55.384Z,14.4
2018-04-24T04:38:55.061Z,14.37
2018-04-24T04:39:55.367Z,14.37
2018-04-24T04:40:55.365Z,14.33
2018-04-24T04:41:55.128Z,14.44
2018-04-24T04:42:55.460Z,14.47
2018-04-24T04:43:55.444Z,14.45
2018-04-24T04:44:55.472Z,14.47
2018-04-24T04:45:55.198Z,14.45
2018-04-24T04:46:55.517Z,14.41
2018-04-24T04:47:55.733Z,14.44
2018-04-24T04:48:55.240Z,14.45
2018-04-24T04:49:55.553Z,14.37
2018-04-24T04:50:55.288Z,14.43
2018-04-24T04:51:55.308Z,14.48
2018-04-24T04:52:55.750Z,14.35
2018-04-24T04:53:55.336Z,14.45
2018-04-24T04:54:55.620Z,14.41
2018-04-24T04:55:55.643Z,14.48
2018-04-24T04:56:55.392Z,14.47
2018-04-24T04:57:55.728Z,14.43
2018-04-24T04:58:55.712Z,14.48
2018-04-24T04:59:55.734Z,14.43
2018-04-24T05:00:55.764Z,14.41
2018-04-24T05:01:55.764Z,14.41
2018-04-24T05:02:55.794Z,14.36
2018-04-24T05:03:55.807Z,14.41
2018-04-24T05:04:55.551Z,14.43
2018-04-24T05:05:55.832Z,14.43
2018-04-24T05:06:55.583Z,14.54
2018-04-24T05:07:55.596Z,14.53
2018-04-24T05:08:55.893Z,14.48
2018-04-24T05:09:55.901Z,14.47
2018-04-24T05:10:55.921Z,14.48
2018-04-24T05:11:55.965Z,14.5
2018-04-24T05:12:55.974Z,14.51
2018-04-24T05:13:55.719Z,14.69
2018-04-24T05:14:56.034Z,14.66
2018-04-24T05:15:56.039Z,14.73
2018-04-24T05:16:56.116Z,14.69
2018-04-24T05:17:56.078Z,14.73
2018-04-24T05:18:56.084Z,14.77
2018-04-24T05:19:56.115Z,14.82
2018-04-24T05:20:56.124Z,14.81
2018-04-24T05:21:55.871Z,14.78
2018-04-24T05:22:56.173Z,14.84
2018-04-24T05:23:55.904Z,14.94
2018-04-24T05:24:55.625Z,14.94
2018-04-24T05:25:55.943Z,14.92
2018-04-24T05:26:55.953Z,15
2018-04-24T05:27:56.011Z,15.03
2018-04-24T05:28:56.268Z,14.99
2018-04-24T05:29:56.293Z,15.03
2018-04-24T05:30:56.289Z,15.06
2018-04-24T05:31:56.320Z,15.06
2018-04-24T05:32:56.341Z,15.11
2018-04-24T05:33:56.353Z,15.17
2018-04-24T05:34:56.114Z,15.09
2018-04-24T05:35:56.453Z,15.18
2018-04-24T05:36:56.431Z,15.19
2018-04-24T05:37:56.438Z,15.15
2018-04-24T05:38:56.448Z,15.19
2018-04-24T05:39:56.207Z,15.19
2018-04-24T05:40:56.494Z,15.22
2018-04-24T05:41:56.496Z,15.22
2018-04-24T05:42:56.256Z,15.33
2018-04-24T05:43:56.552Z,15.25
2018-04-24T05:44:56.564Z,15.25
2018-04-24T05:45:56.322Z,15.33
2018-04-24T05:46:56.607Z,15.35
2018-04-24T05:47:56.641Z,15.37
2018-04-24T05:48:56.638Z,15.36
2018-04-24T05:49:56.665Z,15.42
2018-04-24T05:50:56.700Z,15.35
2018-04-24T05:51:56.471Z,15.39
2018-04-24T05:52:56.837Z,15.43
2018-04-24T05:53:56.452Z,15.44
2018-04-24T05:54:56.769Z,15.43
2018-04-24T05:55:56.776Z,15.46
2018-04-24T05:56:56.795Z,15.52
2018-04-24T05:57:56.618Z,15.57
2018-04-24T05:58:56.549Z,15.59
2018-04-24T05:59:56.854Z,15.55
2018-04-24T06:00:56.586Z,15.51
2018-04-24T06:01:56.598Z,15.58
2018-04-24T06:02:56.901Z,15.58
2018-04-24T06:03:56.920Z,15.65
2018-04-24T06:04:56.957Z,15.52
2018-04-24T06:05:56.966Z,15.64
2018-04-24T06:06:56.435Z,15.65
2018-04-24T06:07:56.999Z,15.65
2018-04-24T06:08:56.755Z,15.64
2018-04-24T06:09:57.040Z,15.59
2018-04-24T06:10:57.070Z,15.65
2018-04-24T06:11:56.853Z,15.59
2018-04-24T06:12:56.818Z,15.59
2018-04-24T06:13:57.100Z,15.72
2018-04-24T06:14:57.155Z,15.68
2018-04-24T06:15:57.177Z,15.64
2018-04-24T06:16:56.890Z,15.64
2018-04-24T06:17:57.180Z,15.7
2018-04-24T06:18:57.231Z,15.72
2018-04-24T06:19:57.227Z,15.65
2018-04-24T06:20:57.281Z,15.58
2018-04-24T06:21:57.286Z,15.65
2018-04-24T06:22:57.293Z,15.58
2018-04-24T06:23:57.318Z,15.61
2018-04-24T06:24:57.327Z,15.61
2018-04-24T06:25:57.337Z,15.59
2018-04-24T06:26:57.501Z,15.65
2018-04-24T06:27:57.402Z,15.7
2018-04-24T06:28:57.127Z,15.64
2018-04-24T06:29:57.435Z,15.58
2018-04-24T06:30:57.440Z,15.68
2018-04-24T06:31:57.451Z,15.7
2018-04-24T06:32:57.495Z,15.72
2018-04-24T06:33:57.492Z,15.67
2018-04-24T06:34:56.951Z,15.76
2018-04-24T06:35:57.675Z,15.72
2018-04-24T06:36:57.690Z,15.76
2018-04-24T06:37:57.575Z,15.79
2018-04-24T06:38:57.598Z,15.84
2018-04-24T06:39:57.591Z,15.79
2018-04-24T06:40:57.638Z,15.83
2018-04-24T06:41:57.083Z,15.9
2018-04-24T06:42:57.679Z,15.86
2018-04-24T06:43:57.405Z,15.83
2018-04-24T06:44:57.693Z,15.9
2018-04-24T06:45:57.446Z,15.97
2018-04-24T06:46:57.469Z,15.9
2018-04-24T06:47:57.950Z,15.97
2018-04-24T06:48:57.776Z,15.9
2018-04-24T06:49:57.823Z,15.95
2018-04-24T06:50:57.809Z,16.02
2018-04-24T06:51:57.550Z,15.94
2018-04-24T06:52:57.876Z,15.98
2018-04-24T06:53:57.588Z,16.1
2018-04-24T06:54:57.964Z,16.02
2018-04-24T06:55:57.641Z,16.15
2018-04-24T06:56:57.939Z,16.2
2018-04-24T06:57:57.675Z,16.21
2018-04-24T06:58:58.012Z,16.21
2018-04-24T06:59:58.010Z,16.16
2018-04-24T07:00:58.175Z,16.29
2018-04-24T07:01:58.064Z,16.32
2018-04-24T07:02:58.053Z,16.28
2018-04-24T07:03:57.785Z,16.21
2018-04-24T07:04:57.795Z,16.21
2018-04-24T07:05:58.101Z,16.33
2018-04-24T07:06:57.832Z,16.43
2018-04-24T07:07:57.874Z,16.42
2018-04-24T07:08:57.889Z,16.38
2018-04-24T07:09:58.195Z,16.5
2018-04-24T07:10:58.194Z,16.42
2018-04-24T07:11:57.942Z,16.51
2018-04-24T07:12:57.997Z,16.56
2018-04-24T07:13:58.244Z,16.66
2018-04-24T07:14:58.307Z,16.68
2018-04-24T07:15:58.301Z,16.74
2018-04-24T07:16:58.692Z,16.81
2018-04-24T07:17:58.057Z,16.86
2018-04-24T07:18:58.429Z,16.83
2018-04-24T07:19:58.099Z,16.84
2018-04-24T07:20:58.400Z,16.97
2018-04-24T07:21:58.426Z,16.99
2018-04-24T07:22:58.547Z,16.93
2018-04-24T07:23:58.178Z,17.09
2018-04-24T07:24:58.217Z,16.94
2018-04-24T07:25:58.507Z,17.04
2018-04-24T07:26:58.230Z,17.14
2018-04-24T07:27:58.535Z,17.16
2018-04-24T07:28:58.563Z,17.16
2018-04-24T07:29:58.572Z,17.19
2018-04-24T07:30:58.621Z,17.14
2018-04-24T07:31:58.627Z,17.19
2018-04-24T07:32:58.798Z,17.22
2018-04-24T07:33:58.638Z,17.26
2018-04-24T07:34:58.393Z,17.34
2018-04-24T07:35:58.403Z,17.27
2018-04-24T07:36:58.437Z,17.29
2018-04-24T07:37:58.783Z,17.36
2018-04-24T07:38:58.752Z,17.36
2018-04-24T07:39:58.505Z,17.39
2018-04-24T07:40:58.868Z,17.34
2018-04-24T07:41:58.829Z,17.31
2018-04-24T07:42:58.915Z,17.44
2018-04-24T07:43:58.615Z,17.48
2018-04-24T07:44:58.879Z,17.45
2018-04-24T07:45:58.905Z,17.57
2018-04-24T07:46:58.776Z,17.51
2018-04-24T07:47:58.923Z,17.56
2018-04-24T07:48:58.657Z,17.56
2018-04-24T07:49:58.953Z,17.63
2018-04-24T07:50:58.431Z,17.67
2018-04-24T07:51:59.022Z,17.67
2018-04-24T07:52:59.070Z,17.78
2018-04-24T07:53:58.790Z,17.71
2018-04-24T07:54:58.782Z,17.72
2018-04-24T07:55:58.808Z,17.76
2018-04-24T07:56:59.104Z,17.8
2018-04-24T07:57:59.165Z,17.86
2018-04-24T07:58:59.143Z,17.89
2018-04-24T07:59:58.884Z,17.87
2018-04-24T08:00:59.187Z,17.94
2018-04-24T08:01:59.202Z,17.95
2018-04-24T08:02:59.223Z,17.94
2018-04-24T08:03:58.982Z,18.01
2018-04-24T08:04:59.270Z,17.98
2018-04-24T08:05:59.003Z,18
2018-04-24T08:06:59.384Z,18.01
2018-04-24T08:07:59.045Z,18.11
2018-04-24T08:08:59.359Z,18.13
2018-04-24T08:09:59.368Z,18.08
2018-04-24T08:10:59.125Z,18.08
2018-04-24T08:11:59.405Z,18.22
2018-04-24T08:12:59.203Z,18.11
2018-04-24T08:13:59.443Z,18.15
2018-04-24T08:14:59.198Z,18.16
2018-04-24T08:15:59.487Z,18.23
2018-04-24T08:16:59.510Z,18.19
2018-04-24T08:17:59.244Z,18.23
2018-04-24T08:18:59.546Z,18.25
2018-04-24T08:19:59.294Z,18.29
2018-04-24T08:20:59.587Z,18.33
2018-04-24T08:21:59.342Z,18.34
2018-04-24T08:22:59.891Z,18.31
2018-04-24T08:23:59.365Z,18.38
2018-04-24T08:24:59.403Z,18.44
2018-04-24T08:25:59.671Z,18.45
2018-04-24T08:26:59.421Z,18.52
2018-04-24T08:27:59.467Z,18.47
2018-04-24T08:28:59.732Z,18.5
2018-04-24T08:29:59.779Z,18.59
2018-04-24T08:30:59.816Z,18.62
2018-04-24T08:31:59.537Z,18.6
2018-04-24T08:32:59.549Z,18.68
2018-04-24T08:33:59.561Z,18.71
2018-04-24T08:34:59.579Z,18.75
2018-04-24T08:35:59.885Z,18.86
2018-04-24T08:36:59.896Z,18.81
2018-04-24T08:37:59.953Z,18.93
2018-04-24T08:38:59.723Z,18.86
2018-04-24T08:40:00.083Z,18.92
2018-04-24T08:41:00.004Z,18.92
2018-04-24T08:41:59.718Z,19.04
2018-04-24T08:43:00.022Z,19
2018-04-24T08:44:00.040Z,19.12
2018-04-24T08:45:00.089Z,19.14
2018-04-24T08:46:00.113Z,19.16
2018-04-24T08:46:59.854Z,19.19
2018-04-24T08:47:59.945Z,19.3
2018-04-24T08:49:00.160Z,19.45
2018-04-24T08:50:00.165Z,19.47
2018-04-24T08:51:00.203Z,19.47
2018-04-24T08:51:59.937Z,19.48
2018-04-24T08:53:00.219Z,19.67
2018-04-24T08:54:00.285Z,19.63
2018-04-24T08:55:00.286Z,19.62
2018-04-24T08:56:00.323Z,19.69
2018-04-24T08:57:00.322Z,19.71
2018-04-24T08:58:00.052Z,19.7
2018-04-24T08:59:00.354Z,19.82
2018-04-24T09:00:00.380Z,19.73
2018-04-24T09:01:00.403Z,19.91
2018-04-24T09:02:00.271Z,19.86
2018-04-24T09:03:00.157Z,19.85
2018-04-24T09:04:00.463Z,19.96
2018-04-24T09:05:00.485Z,19.92
2018-04-24T09:06:00.229Z,19.92
2018-04-24T09:07:00.522Z,19.94
2018-04-24T09:08:00.557Z,20.06
2018-04-24T09:09:00.571Z,19.99
2018-04-24T09:10:00.311Z,20.03
2018-04-24T09:11:00.326Z,20.06
2018-04-24T09:12:00.360Z,20.1
2018-04-24T09:13:00.664Z,20.13
2018-04-24T09:14:00.410Z,20.11
2018-04-24T09:15:00.692Z,20.13
2018-04-24T09:16:00.733Z,20.16
2018-04-24T09:17:00.738Z,20.18
2018-04-24T09:18:00.512Z,20.26
2018-04-24T09:19:00.491Z,20.28
2018-04-24T09:20:00.524Z,20.25
2018-04-24T09:21:00.832Z,20.26
2018-04-24T09:22:00.833Z,20.26
2018-04-24T09:23:00.604Z,20.39
2018-04-24T09:24:00.878Z,20.37
2018-04-24T09:25:00.908Z,20.43
2018-04-24T09:26:00.654Z,20.44
2018-04-24T09:27:01.154Z,20.44
2018-04-24T09:28:00.420Z,20.44
2018-04-24T09:29:00.999Z,20.41
2018-04-24T09:30:01.051Z,20.5
2018-04-24T09:31:01.038Z,20.5
2018-04-24T09:32:01.063Z,20.43
2018-04-24T09:33:01.096Z,20.52
2018-04-24T09:34:00.823Z,20.55
2018-04-24T09:35:01.105Z,20.56
2018-04-24T09:36:01.124Z,20.63
2018-04-24T09:37:00.884Z,20.6
2018-04-24T09:38:01.191Z,20.72
2018-04-24T09:39:01.107Z,20.8
2018-04-24T09:40:00.942Z,20.85
2018-04-24T09:41:00.965Z,20.81
2018-04-24T09:42:01.295Z,20.92
2018-04-24T09:43:01.292Z,20.92
2018-04-24T09:44:01.582Z,21.02
2018-04-24T09:45:01.053Z,21
2018-04-24T09:46:01.683Z,21.03
2018-04-24T09:47:01.382Z,21.09
2018-04-24T09:48:01.408Z,21.2
2018-04-24T09:49:01.440Z,21.22
2018-04-24T09:50:01.441Z,21.25
2018-04-24T09:51:01.482Z,21.29
2018-04-24T09:52:01.216Z,21.3
2018-04-24T09:53:01.511Z,21.4
2018-04-24T09:54:01.536Z,21.35
2018-04-24T09:55:01.544Z,21.45
2018-04-24T09:56:01.585Z,21.48
2018-04-24T09:57:01.603Z,21.58
2018-04-24T09:58:01.356Z,21.62
2018-04-24T09:59:01.364Z,21.66
2018-04-24T10:00:01.670Z,21.7
2018-04-24T10:01:01.700Z,21.75
2018-04-24T10:02:01.452Z,21.85
2018-04-24T10:03:01.742Z,21.92
2018-04-24T10:04:01.472Z,22
2018-04-24T10:05:01.798Z,22
2018-04-24T10:06:01.786Z,22.11
2018-04-24T10:07:01.824Z,22.23
2018-04-24T10:08:01.562Z,22.23
2018-04-24T10:09:01.592Z,22.3
2018-04-24T10:10:01.904Z,22.38
2018-04-24T10:11:01.623Z,22.39
2018-04-24T10:12:01.920Z,22.55
2018-04-24T10:13:01.697Z,22.54
2018-04-24T10:14:01.692Z,22.44
2018-04-24T10:15:01.448Z,22.53
2018-04-24T10:16:01.755Z,22.62
2018-04-24T10:17:01.746Z,22.54
2018-04-24T10:18:02.066Z,22.65
2018-04-24T10:19:01.934Z,22.66
2018-04-24T10:20:02.115Z,22.73
2018-04-24T10:21:02.142Z,22.88
2018-04-24T10:22:02.160Z,22.87
2018-04-24T10:23:01.887Z,22.98
2018-04-24T10:24:02.013Z,23.02
2018-04-24T10:25:02.237Z,23.06
2018-04-24T10:26:02.266Z,23.2
2018-04-24T10:27:01.998Z,23.21
2018-04-24T10:28:02.016Z,23.24
2018-04-24T10:29:01.745Z,23.39
2018-04-24T10:30:02.135Z,23.41
2018-04-24T10:31:02.361Z,23.48
2018-04-24T10:32:02.371Z,23.56
2018-04-24T10:33:02.415Z,23.66
2018-04-24T10:34:02.552Z,23.69
2018-04-24T10:35:02.466Z,23.78
2018-04-24T10:36:02.189Z,23.76
2018-04-24T10:37:02.511Z,23.71
2018-04-24T10:38:02.518Z,23.86
2018-04-24T10:39:02.550Z,23.91
2018-04-24T10:40:02.284Z,23.99
2018-04-24T10:41:02.665Z,24.01
2018-04-24T10:42:02.686Z,24.06
2018-04-24T10:43:02.632Z,24.11
2018-04-24T10:44:02.151Z,24.21
2018-04-24T10:45:02.712Z,24.17
2018-04-24T10:46:02.719Z,24.18
2018-04-24T10:47:02.449Z,24.14
2018-04-24T10:48:02.884Z,24.17
2018-04-24T10:49:02.222Z,24.26
2018-04-24T10:50:02.559Z,24.23
2018-04-24T10:51:02.563Z,24.26
2018-04-24T10:52:02.593Z,24.28
2018-04-24T10:53:02.696Z,24.21
2018-04-24T10:54:02.956Z,24.2
2018-04-24T10:55:02.939Z,24.23
2018-04-24T10:56:03.268Z,24.21
2018-04-24T10:57:02.701Z,24.26
2018-04-24T10:58:02.727Z,24.21
2018-04-24T10:59:02.731Z,24.2
2018-04-24T11:00:02.774Z,24.2
2018-04-24T11:01:03.071Z,24.2
2018-04-24T11:02:02.837Z,24.17
2018-04-24T11:03:02.838Z,24.24
2018-04-24T11:04:02.935Z,24.17
2018-04-24T11:05:02.909Z,24.17
2018-04-24T11:06:02.924Z,24.2
2018-04-24T11:07:03.219Z,24.16
2018-04-24T11:08:02.970Z,24.16
2018-04-24T11:09:02.978Z,24.17
2018-04-24T11:10:02.722Z,24.11
2018-04-24T11:11:03.053Z,24.1
2018-04-24T11:12:03.162Z,24.03
2018-04-24T11:13:02.788Z,24.02
2018-04-24T11:14:03.410Z,23.99
2018-04-24T11:15:03.405Z,24.03
2018-04-24T11:16:03.190Z,23.95
2018-04-24T11:17:03.263Z,23.93
2018-04-24T11:18:03.225Z,23.93
2018-04-24T11:19:03.219Z,23.91
2018-04-24T11:20:03.535Z,23.83
2018-04-24T11:21:03.581Z,23.83
2018-04-24T11:22:03.598Z,23.77
2018-04-24T11:23:03.340Z,23.76
2018-04-24T11:24:03.372Z,23.71
2018-04-24T11:25:03.651Z,23.68
2018-04-24T11:26:03.145Z,23.65
2018-04-24T11:27:03.432Z,23.69
2018-04-24T11:28:03.460Z,23.63
2018-04-24T11:29:03.761Z,23.61
2018-04-24T11:30:03.502Z,23.56
2018-04-24T11:31:03.238Z,23.51
2018-04-24T11:32:03.843Z,23.5
2018-04-24T11:33:03.285Z,23.5
2018-04-24T11:34:03.721Z,23.41
2018-04-24T11:35:03.909Z,23.34
2018-04-24T11:36:04.058Z,23.27
2018-04-24T11:37:03.932Z,23.28
2018-04-24T11:38:03.689Z,23.32
2018-04-24T11:39:03.983Z,23.25
2018-04-24T11:40:04.016Z,23.25
2018-04-24T11:41:03.473Z,23.13
2018-04-24T11:42:04.069Z,23.21
2018-04-24T11:43:03.803Z,23.12
2018-04-24T11:44:04.028Z,23.09
2018-04-24T11:45:04.230Z,23.12
2018-04-24T11:46:04.162Z,23.02
2018-04-24T11:47:03.911Z,23.06
2018-04-24T11:48:03.983Z,22.99
2018-04-24T11:49:03.974Z,23.05
2018-04-24T11:50:04.285Z,22.98
2018-04-24T11:51:04.012Z,23.03
2018-04-24T11:52:04.312Z,23
2018-04-24T11:53:04.049Z,23
2018-04-24T11:54:04.079Z,22.98
2018-04-24T11:55:04.390Z,22.94
2018-04-24T11:56:04.422Z,22.96
2018-04-24T11:57:04.645Z,22.96
2018-04-24T11:58:04.188Z,22.88
2018-04-24T11:59:04.465Z,22.87
2018-04-24T12:00:04.482Z,22.9
2018-04-24T12:01:04.528Z,22.85
2018-04-24T12:02:04.580Z,22.85
2018-04-24T12:03:04.309Z,22.85
2018-04-24T12:04:04.601Z,22.84
2018-04-24T12:05:04.333Z,22.91
2018-04-24T12:06:04.639Z,22.93
2018-04-24T12:07:04.677Z,22.88
2018-04-24T12:08:04.416Z,22.88
2018-04-24T12:09:04.744Z,22.84
2018-04-24T12:10:04.963Z,22.83
2018-04-24T12:11:04.220Z,22.84
2018-04-24T12:12:04.784Z,22.87
2018-04-24T12:13:04.822Z,22.83
2018-04-24T12:14:04.563Z,22.8
2018-04-24T12:15:04.602Z,22.7
2018-04-24T12:16:04.620Z,22.76
2018-04-24T12:17:04.349Z,22.75
2018-04-24T12:18:04.651Z,22.72
2018-04-24T12:19:04.947Z,22.73
2018-04-24T12:20:04.759Z,22.69
2018-04-24T12:21:05.020Z,22.66
2018-04-24T12:22:04.804Z,22.63
2018-04-24T12:23:04.794Z,22.62
2018-04-24T12:24:04.814Z,22.6
2018-04-24T12:25:04.876Z,22.62
2018-04-24T12:26:05.129Z,22.62
2018-04-24T12:27:05.167Z,22.6
2018-04-24T12:28:05.162Z,22.62
2018-04-24T12:29:04.922Z,22.47
2018-04-24T12:30:04.965Z,22.51
2018-04-24T12:31:04.970Z,22.44
2018-04-24T12:32:05.005Z,22.47
2018-04-24T12:33:05.014Z,22.5
2018-04-24T12:34:05.340Z,22.47
2018-04-24T12:35:05.397Z,22.53
2018-04-24T12:36:05.077Z,22.38
2018-04-24T12:37:04.839Z,22.29
2018-04-24T12:38:05.415Z,22.32
2018-04-24T12:39:05.459Z,22.44
2018-04-24T12:40:05.192Z,22.36
2018-04-24T12:41:05.491Z,22.38
2018-04-24T12:42:05.536Z,22.28
2018-04-24T12:43:05.633Z,22.26
2018-04-24T12:44:05.298Z,22.23
2018-04-24T12:45:05.373Z,22.29
2018-04-24T12:46:05.357Z,22.29
2018-04-24T12:47:05.357Z,22.13
2018-04-24T12:48:05.100Z,22.17
2018-04-24T12:49:05.676Z,22.11
2018-04-24T12:50:05.773Z,22.02
2018-04-24T12:51:05.433Z,22.04
2018-04-24T12:52:05.485Z,22.04
2018-04-24T12:53:05.502Z,21.99
2018-04-24T12:54:05.553Z,22.02
2018-04-24T12:55:05.601Z,21.99
2018-04-24T12:56:05.830Z,21.99
2018-04-24T12:57:05.591Z,21.91